Acton, Indiana
Current Conditions -  °F | °C
As of 7:53 AM on Friday 28 Nov 2014 (Local Time) from KGEZ Reporting Station
Overcast Overcast  
Wind Chill: 18°   Ceiling: 9000
Heat Index: 25°   Visibility: 10mi
Dew Point: 18°   Wind: 6mph
Humidity: 75%   Direction: 170°S
Pressure: 30.36"   Gusts: NA
Location:  39.6613°N, 85.9949°W
Report Text: KGEZ 281253Z AUTO 17005KT 10SM OVC090 M04/M08 A3036 RMK AO2 SLP289 T10391078
Loading
Personal Weather Stations






























Interactive Weather Map New forecast layout! Learn more

10-Day Weather Forecast

Advertisements
Track Severe Weather on mobile